Randolph Air Force Base
KRND : now visible

Airfield :











YOU CAN JOIN US ON...

 
LOGIN :

Register | Disclaimer

   EN    FR    IT 

 









Legend :    VFR   Marginal VFR   IFR   Intensive IFR   Very Intensive IFR
Visi :
Ceiling :
>= 8 km
>= 3000ft
5 to 8 km
1000 to 3000 ft
1500m to 5 km
500 to 1000 ft
800 to 1500m
200 to 500 ft
< 800m
< 200 ft
Symbols :   Thunderstorms  Fog  Heavy snow  Heavy precipitations  Wind > 20 kt






- Airport Elevation : 761 ft


KRND - Randolph Air Force Base

CURRENT METAR :
  • 141136Z AUTO 00000KT 10SM OVC010 21/19 A2994 RMK AO2 CIG 009 RWY33R SLP131

EXPIRED METARs :
  • 141106Z AUTO 34003KT 10SM BKN009 20/18 A2993 RMK AO2 BKN V SCT SLP128 $
  • 141056Z AUTO 32004KT 10SM FEW010 20/18 A2993 RMK AO2 SLP128 T01980177 $
  • 140956Z AUTO 27003KT 10SM FEW008 21/18 A2992 RMK AO2 SLP124 T02120182 $
  • 140856Z AUTO 11004KT 10SM SCT012 22/17 A2990 RMK AO2 SLP118 T02190172 57006 $

TAF TAF KRND
Valid from the 14 at 10:00 until the 15 at 16:00 UTC


140945Z 1410/1516 06006KT 9999 FEW010 SCT020 QNH2989INS
BECMG 1410/1411 07006KT 9999 SCT012 BKN018 QNH2990INS
TEMPO 1412/1416 BKN012
BECMG 1417/1418 06006KT 9999 VCSH FEW025 BKN045 QNH2983INS
TEMPO 1421/1501 9999 VCTS SCT025CB
BECMG 1501/1502 04010G15KT 9999 VCSH BKN025 QNH2986INS
BECMG 1505/1506 04012G18KT 6000 -SHRA VCTS BKN015CB QNH2990INS
BECMG 1508/1509 04012KT 9000 BR VCSH OVC007 QNH2989INS
BECMG 1514/1515 05015G20KT 9000 BR SCT006 OVC010 QNH2997INS TX27/1422Z TN17/1509Z
KZHU FIR / North America



MET'MAP, your aeronautical weather chart ! - Copyright ORBIFLY December 2007 - Disclaimer

ORBIFLY MET'MAP TEAM :

Programming & Development : Alexandra Zaïnal
Concept & original design : Baudouin d'Aumeries
Assistance for programming : Marc-Olivier Méhu
Technical & hardware support : Manuel Goepfert

Contact : metmap@orbifly.com




SOURCES & CREDITS :

   NOAA       Earth
Advisory